sensor_id;sensor_type;location;lat;lon;timestamp;P1;durP1;ratioP1;P2;durP2;ratioP2
22650;SDS011;11492;42.646;23.400;2023-06-26T00:01:49;31.48;;;21.77;;
22650;SDS011;11492;42.646;23.400;2023-06-26T00:04:14;29.73;;;21.48;;
22650;SDS011;11492;42.646;23.400;2023-06-26T00:06:40;33.30;;;22.05;;
22650;SDS011;11492;42.646;23.400;2023-06-26T00:09:07;37.15;;;22.40;;
22650;SDS011;11492;42.646;23.400;2023-06-26T00:11:33;32.03;;;21.73;;
22650;SDS011;11492;42.646;23.400;2023-06-26T00:13:59;28.38;;;20.30;;
22650;SDS011;11492;42.646;23.400;2023-06-26T00:16:25;28.98;;;20.98;;
22650;SDS011;11492;42.646;23.400;2023-06-26T00:18:52;29.60;;;20.52;;
22650;SDS011;11492;42.646;23.400;2023-06-26T00:21:18;31.48;;;19.80;;
22650;SDS011;11492;42.646;23.400;2023-06-26T00:23:44;31.08;;;20.15;;
22650;SDS011;11492;42.646;23.400;2023-06-26T00:26:10;31.40;;;19.33;;
22650;SDS011;11492;42.646;23.400;2023-06-26T00:28:36;25.75;;;18.70;;
22650;SDS011;11492;42.646;23.400;2023-06-26T00:31:01;29.77;;;18.65;;
22650;SDS011;11492;42.646;23.400;2023-06-26T00:33:27;28.63;;;18.13;;
22650;SDS011;11492;42.646;23.400;2023-06-26T00:35:52;23.35;;;17.33;;
22650;SDS011;11492;42.646;23.400;2023-06-26T00:38:18;30.25;;;18.17;;
22650;SDS011;11492;42.646;23.400;2023-06-26T00:40:43;24.83;;;17.45;;
22650;SDS011;11492;42.646;23.400;2023-06-26T00:43:09;27.95;;;17.23;;
22650;SDS011;11492;42.646;23.400;2023-06-26T00:45:34;28.25;;;16.98;;
22650;SDS011;11492;42.646;23.400;2023-06-26T00:48:00;26.48;;;17.40;;
22650;SDS011;11492;42.646;23.400;2023-06-26T00:50:26;22.85;;;16.23;;
22650;SDS011;11492;42.646;23.400;2023-06-26T00:52:52;27.85;;;16.27;;
22650;SDS011;11492;42.646;23.400;2023-06-26T00:55:19;21.15;;;16.10;;
22650;SDS011;11492;42.646;23.400;2023-06-26T00:57:46;19.15;;;15.27;;
22650;SDS011;11492;42.646;23.400;2023-06-26T01:00:12;25.85;;;16.05;;
22650;SDS011;11492;42.646;23.400;2023-06-26T01:02:38;24.17;;;15.45;;
22650;SDS011;11492;42.646;23.400;2023-06-26T01:05:04;24.67;;;15.95;;
22650;SDS011;11492;42.646;23.400;2023-06-26T01:07:32;25.15;;;15.93;;
22650;SDS011;11492;42.646;23.400;2023-06-26T01:10:02;26.58;;;14.05;;
22650;SDS011;11492;42.646;23.400;2023-06-26T01:12:30;18.85;;;14.55;;
22650;SDS011;11492;42.646;23.400;2023-06-26T01:14:57;25.20;;;14.25;;
22650;SDS011;11492;42.646;23.400;2023-06-26T01:17:23;21.95;;;13.48;;
22650;SDS011;11492;42.646;23.400;2023-06-26T01:19:49;18.80;;;12.68;;
22650;SDS011;11492;42.646;23.400;2023-06-26T01:25:23;20.70;;;12.80;;
22650;SDS011;11492;42.646;23.400;2023-06-26T01:27:53;19.58;;;12.60;;
22650;SDS011;11492;42.646;23.400;2023-06-26T01:30:20;21.17;;;13.73;;
22650;SDS011;11492;42.646;23.400;2023-06-26T01:32:46;23.30;;;13.25;;
22650;SDS011;11492;42.646;23.400;2023-06-26T01:35:13;19.63;;;12.75;;
22650;SDS011;11492;42.646;23.400;2023-06-26T01:37:39;18.48;;;13.02;;
22650;SDS011;11492;42.646;23.400;2023-06-26T01:40:05;19.77;;;12.48;;
22650;SDS011;11492;42.646;23.400;2023-06-26T01:42:31;18.70;;;12.95;;
22650;SDS011;11492;42.646;23.400;2023-06-26T01:44:57;21.75;;;13.82;;
22650;SDS011;11492;42.646;23.400;2023-06-26T01:47:53;18.88;;;12.40;;
22650;SDS011;11492;42.646;23.400;2023-06-26T01:50:22;18.13;;;13.50;;
22650;SDS011;11492;42.646;23.400;2023-06-26T01:58:19;19.45;;;12.73;;
22650;SDS011;11492;42.646;23.400;2023-06-26T02:00:47;18.63;;;13.40;;
22650;SDS011;11492;42.646;23.400;2023-06-26T02:03:13;18.58;;;13.38;;
22650;SDS011;11492;42.646;23.400;2023-06-26T02:05:39;28.00;;;13.77;;
22650;SDS011;11492;42.646;23.400;2023-06-26T02:08:04;23.13;;;14.30;;
22650;SDS011;11492;42.646;23.400;2023-06-26T02:10:30;19.95;;;13.43;;
22650;SDS011;11492;42.646;23.400;2023-06-26T02:12:56;21.70;;;13.68;;
22650;SDS011;11492;42.646;23.400;2023-06-26T02:15:21;21.27;;;14.05;;
22650;SDS011;11492;42.646;23.400;2023-06-26T02:17:47;24.50;;;14.32;;
22650;SDS011;11492;42.646;23.400;2023-06-26T02:20:13;19.85;;;13.80;;
22650;SDS011;11492;42.646;23.400;2023-06-26T02:22:39;18.10;;;13.65;;
22650;SDS011;11492;42.646;23.400;2023-06-26T02:25:05;19.80;;;13.93;;
22650;SDS011;11492;42.646;23.400;2023-06-26T02:27:30;22.00;;;14.02;;
22650;SDS011;11492;42.646;23.400;2023-06-26T02:29:56;20.70;;;13.23;;
22650;SDS011;11492;42.646;23.400;2023-06-26T02:32:21;20.50;;;13.40;;
22650;SDS011;11492;42.646;23.400;2023-06-26T02:34:47;17.00;;;13.30;;
22650;SDS011;11492;42.646;23.400;2023-06-26T02:37:12;19.80;;;14.38;;
22650;SDS011;11492;42.646;23.400;2023-06-26T02:39:38;21.73;;;13.52;;
22650;SDS011;11492;42.646;23.400;2023-06-26T02:42:03;23.27;;;14.63;;
22650;SDS011;11492;42.646;23.400;2023-06-26T02:44:29;20.95;;;14.48;;
22650;SDS011;11492;42.646;23.400;2023-06-26T02:46:54;18.88;;;14.48;;
22650;SDS011;11492;42.646;23.400;2023-06-26T02:49:20;20.80;;;14.32;;
22650;SDS011;11492;42.646;23.400;2023-06-26T02:51:45;21.80;;;14.52;;
22650;SDS011;11492;42.646;23.400;2023-06-26T02:54:11;19.73;;;14.73;;
22650;SDS011;11492;42.646;23.400;2023-06-26T02:56:36;18.00;;;14.65;;
22650;SDS011;11492;42.646;23.400;2023-06-26T02:59:02;20.55;;;14.65;;
22650;SDS011;11492;42.646;23.400;2023-06-26T03:01:27;21.10;;;15.25;;
22650;SDS011;11492;42.646;23.400;2023-06-26T03:03:53;25.52;;;16.27;;
22650;SDS011;11492;42.646;23.400;2023-06-26T03:06:18;27.23;;;16.98;;
22650;SDS011;11492;42.646;23.400;2023-06-26T03:08:44;26.05;;;17.10;;
22650;SDS011;11492;42.646;23.400;2023-06-26T03:11:09;24.60;;;16.83;;
22650;SDS011;11492;42.646;23.400;2023-06-26T03:13:35;20.83;;;17.42;;
22650;SDS011;11492;42.646;23.400;2023-06-26T03:16:01;24.15;;;18.20;;
22650;SDS011;11492;42.646;23.400;2023-06-26T03:18:27;23.40;;;17.42;;
22650;SDS011;11492;42.646;23.400;2023-06-26T03:20:55;27.00;;;18.40;;
22650;SDS011;11492;42.646;23.400;2023-06-26T03:23:22;25.75;;;17.88;;
22650;SDS011;11492;42.646;23.400;2023-06-26T03:25:48;23.13;;;18.40;;
22650;SDS011;11492;42.646;23.400;2023-06-26T03:28:14;24.52;;;17.80;;
22650;SDS011;11492;42.646;23.400;2023-06-26T03:30:40;20.65;;;16.40;;
22650;SDS011;11492;42.646;23.400;2023-06-26T03:33:05;22.48;;;17.88;;
22650;SDS011;11492;42.646;23.400;2023-06-26T03:35:30;23.98;;;17.23;;
22650;SDS011;11492;42.646;23.400;2023-06-26T03:37:56;25.80;;;17.23;;
22650;SDS011;11492;42.646;23.400;2023-06-26T03:40:22;23.30;;;17.35;;
22650;SDS011;11492;42.646;23.400;2023-06-26T03:42:48;25.30;;;17.60;;
22650;SDS011;11492;42.646;23.400;2023-06-26T03:45:13;24.67;;;17.45;;
22650;SDS011;11492;42.646;23.400;2023-06-26T03:47:39;27.42;;;16.95;;
22650;SDS011;11492;42.646;23.400;2023-06-26T03:50:04;23.48;;;17.45;;
22650;SDS011;11492;42.646;23.400;2023-06-26T03:52:30;22.08;;;17.38;;
22650;SDS011;11492;42.646;23.400;2023-06-26T03:54:56;22.55;;;17.85;;
22650;SDS011;11492;42.646;23.400;2023-06-26T03:57:22;28.50;;;18.55;;
22650;SDS011;11492;42.646;23.400;2023-06-26T03:59:48;25.63;;;18.00;;
22650;SDS011;11492;42.646;23.400;2023-06-26T04:02:13;21.40;;;18.27;;
22650;SDS011;11492;42.646;23.400;2023-06-26T04:04:38;23.55;;;17.42;;
22650;SDS011;11492;42.646;23.400;2023-06-26T04:07:04;28.27;;;17.85;;
22650;SDS011;11492;42.646;23.400;2023-06-26T04:09:29;21.85;;;17.25;;
22650;SDS011;11492;42.646;23.400;2023-06-26T04:11:55;19.35;;;16.67;;
22650;SDS011;11492;42.646;23.400;2023-06-26T04:14:20;28.58;;;17.75;;
22650;SDS011;11492;42.646;23.400;2023-06-26T04:16:46;23.30;;;17.63;;
22650;SDS011;11492;42.646;23.400;2023-06-26T04:19:11;25.27;;;16.77;;
22650;SDS011;11492;42.646;23.400;2023-06-26T04:21:37;25.95;;;17.77;;
22650;SDS011;11492;42.646;23.400;2023-06-26T04:24:02;28.67;;;16.55;;
22650;SDS011;11492;42.646;23.400;2023-06-26T04:26:28;21.65;;;16.10;;
22650;SDS011;11492;42.646;23.400;2023-06-26T04:28:54;21.63;;;16.63;;
22650;SDS011;11492;42.646;23.400;2023-06-26T04:31:19;23.30;;;16.30;;
22650;SDS011;11492;42.646;23.400;2023-06-26T04:33:45;20.35;;;15.63;;
22650;SDS011;11492;42.646;23.400;2023-06-26T04:36:15;21.42;;;16.13;;
22650;SDS011;11492;42.646;23.400;2023-06-26T04:38:42;24.08;;;15.30;;
22650;SDS011;11492;42.646;23.400;2023-06-26T04:41:07;25.40;;;15.98;;
22650;SDS011;11492;42.646;23.400;2023-06-26T04:43:32;22.88;;;14.95;;
22650;SDS011;11492;42.646;23.400;2023-06-26T04:45:58;21.67;;;14.98;;
22650;SDS011;11492;42.646;23.400;2023-06-26T04:48:23;23.15;;;16.25;;
22650;SDS011;11492;42.646;23.400;2023-06-26T04:50:49;22.65;;;16.63;;
22650;SDS011;11492;42.646;23.400;2023-06-26T04:53:19;19.05;;;15.35;;
22650;SDS011;11492;42.646;23.400;2023-06-26T04:55:46;22.83;;;15.93;;
22650;SDS011;11492;42.646;23.400;2023-06-26T04:58:11;23.33;;;16.95;;
22650;SDS011;11492;42.646;23.400;2023-06-26T05:00:36;22.10;;;15.98;;
22650;SDS011;11492;42.646;23.400;2023-06-26T05:03:02;26.55;;;16.92;;
22650;SDS011;11492;42.646;23.400;2023-06-26T05:05:27;26.63;;;16.60;;
22650;SDS011;11492;42.646;23.400;2023-06-26T05:07:54;24.60;;;17.02;;
22650;SDS011;11492;42.646;23.400;2023-06-26T05:10:20;22.20;;;16.45;;
22650;SDS011;11492;42.646;23.400;2023-06-26T05:12:45;20.35;;;16.38;;
22650;SDS011;11492;42.646;23.400;2023-06-26T05:15:11;28.50;;;17.63;;
22650;SDS011;11492;42.646;23.400;2023-06-26T05:17:36;21.73;;;16.02;;
22650;SDS011;11492;42.646;23.400;2023-06-26T05:20:02;32.75;;;16.88;;
22650;SDS011;11492;42.646;23.400;2023-06-26T05:22:28;24.55;;;16.38;;
22650;SDS011;11492;42.646;23.400;2023-06-26T05:24:54;24.55;;;17.77;;
22650;SDS011;11492;42.646;23.400;2023-06-26T05:27:20;21.55;;;16.58;;
22650;SDS011;11492;42.646;23.400;2023-06-26T05:29:49;22.98;;;16.20;;
22650;SDS011;11492;42.646;23.400;2023-06-26T05:32:16;22.40;;;16.00;;
22650;SDS011;11492;42.646;23.400;2023-06-26T05:34:47;55.58;;;40.88;;
22650;SDS011;11492;42.646;23.400;2023-06-26T05:37:18;28.63;;;19.92;;
22650;SDS011;11492;42.646;23.400;2023-06-26T05:39:46;19.80;;;15.48;;
22650;SDS011;11492;42.646;23.400;2023-06-26T05:42:12;20.65;;;15.45;;
22650;SDS011;11492;42.646;23.400;2023-06-26T05:44:38;21.33;;;14.82;;
22650;SDS011;11492;42.646;23.400;2023-06-26T05:47:04;24.00;;;15.38;;
22650;SDS011;11492;42.646;23.400;2023-06-26T05:49:30;21.42;;;15.63;;
22650;SDS011;11492;42.646;23.400;2023-06-26T05:51:55;20.83;;;15.05;;
22650;SDS011;11492;42.646;23.400;2023-06-26T05:54:22;26.65;;;15.05;;
22650;SDS011;11492;42.646;23.400;2023-06-26T05:56:49;26.83;;;14.73;;
22650;SDS011;11492;42.646;23.400;2023-06-26T05:59:19;23.92;;;15.88;;
22650;SDS011;11492;42.646;23.400;2023-06-26T06:01:45;22.48;;;14.07;;
22650;SDS011;11492;42.646;23.400;2023-06-26T06:04:11;24.75;;;14.00;;
22650;SDS011;11492;42.646;23.400;2023-06-26T06:06:36;24.58;;;14.15;;
22650;SDS011;11492;42.646;23.400;2023-06-26T06:09:02;20.73;;;13.23;;
22650;SDS011;11492;42.646;23.400;2023-06-26T06:11:28;20.58;;;13.30;;
22650;SDS011;11492;42.646;23.400;2023-06-26T06:13:53;20.23;;;13.57;;
22650;SDS011;11492;42.646;23.400;2023-06-26T06:16:19;21.75;;;13.15;;
22650;SDS011;11492;42.646;23.400;2023-06-26T06:18:44;22.73;;;12.85;;
22650;SDS011;11492;42.646;23.400;2023-06-26T06:21:09;24.02;;;13.32;;
22650;SDS011;11492;42.646;23.400;2023-06-26T06:23:35;22.50;;;12.95;;
22650;SDS011;11492;42.646;23.400;2023-06-26T06:26:00;17.60;;;12.00;;
22650;SDS011;11492;42.646;23.400;2023-06-26T06:28:25;17.95;;;13.02;;
22650;SDS011;11492;42.646;23.400;2023-06-26T06:30:51;18.95;;;12.02;;
22650;SDS011;11492;42.646;23.400;2023-06-26T06:33:16;20.05;;;12.18;;
22650;SDS011;11492;42.646;23.400;2023-06-26T06:35:42;14.07;;;11.45;;
22650;SDS011;11492;42.646;23.400;2023-06-26T06:38:07;15.65;;;11.13;;
22650;SDS011;11492;42.646;23.400;2023-06-26T06:40:33;23.35;;;11.88;;
22650;SDS011;11492;42.646;23.400;2023-06-26T06:42:58;17.70;;;11.27;;
22650;SDS011;11492;42.646;23.400;2023-06-26T06:45:23;17.67;;;11.55;;
22650;SDS011;11492;42.646;23.400;2023-06-26T06:47:49;22.00;;;12.80;;
22650;SDS011;11492;42.646;23.400;2023-06-26T06:50:14;17.95;;;11.43;;
22650;SDS011;11492;42.646;23.400;2023-06-26T06:52:42;16.80;;;11.43;;
22650;SDS011;11492;42.646;23.400;2023-06-26T06:55:08;17.30;;;11.88;;
22650;SDS011;11492;42.646;23.400;2023-06-26T06:57:37;14.15;;;10.98;;
22650;SDS011;11492;42.646;23.400;2023-06-26T07:00:11;18.33;;;11.25;;
22650;SDS011;11492;42.646;23.400;2023-06-26T07:02:40;17.55;;;11.60;;
22650;SDS011;11492;42.646;23.400;2023-06-26T07:05:07;14.60;;;11.00;;
22650;SDS011;11492;42.646;23.400;2023-06-26T07:07:34;18.27;;;11.52;;
22650;SDS011;11492;42.646;23.400;2023-06-26T07:10:04;19.85;;;10.75;;
22650;SDS011;11492;42.646;23.400;2023-06-26T07:12:34;19.65;;;11.55;;
22650;SDS011;11492;42.646;23.400;2023-06-26T07:15:01;19.15;;;10.98;;
22650;SDS011;11492;42.646;23.400;2023-06-26T07:17:27;21.48;;;11.07;;
22650;SDS011;11492;42.646;23.400;2023-06-26T07:19:53;20.00;;;10.30;;
22650;SDS011;11492;42.646;23.400;2023-06-26T07:22:18;13.88;;;9.68;;
22650;SDS011;11492;42.646;23.400;2023-06-26T07:24:46;12.60;;;8.68;;
22650;SDS011;11492;42.646;23.400;2023-06-26T07:27:12;13.05;;;9.00;;
22650;SDS011;11492;42.646;23.400;2023-06-26T07:29:37;10.95;;;7.97;;
22650;SDS011;11492;42.646;23.400;2023-06-26T07:32:03;11.23;;;8.07;;
22650;SDS011;11492;42.646;23.400;2023-06-26T07:34:29;12.05;;;8.00;;
22650;SDS011;11492;42.646;23.400;2023-06-26T07:36:54;17.83;;;8.10;;
22650;SDS011;11492;42.646;23.400;2023-06-26T07:39:19;11.85;;;8.45;;
22650;SDS011;11492;42.646;23.400;2023-06-26T07:41:45;15.10;;;8.13;;
22650;SDS011;11492;42.646;23.400;2023-06-26T07:44:10;15.68;;;7.95;;
22650;SDS011;11492;42.646;23.400;2023-06-26T07:46:35;9.05;;;7.40;;
22650;SDS011;11492;42.646;23.400;2023-06-26T07:49:01;11.25;;;7.65;;
22650;SDS011;11492;42.646;23.400;2023-06-26T07:51:26;13.25;;;7.75;;
22650;SDS011;11492;42.646;23.400;2023-06-26T07:53:52;14.63;;;7.85;;
22650;SDS011;11492;42.646;23.400;2023-06-26T07:56:17;14.25;;;7.68;;
22650;SDS011;11492;42.646;23.400;2023-06-26T07:58:42;10.73;;;7.28;;
22650;SDS011;11492;42.646;23.400;2023-06-26T08:01:08;13.27;;;7.32;;
22650;SDS011;11492;42.646;23.400;2023-06-26T08:03:33;12.13;;;7.65;;
22650;SDS011;11492;42.646;23.400;2023-06-26T08:05:59;13.45;;;7.57;;
22650;SDS011;11492;42.646;23.400;2023-06-26T08:08:24;15.43;;;6.97;;
22650;SDS011;11492;42.646;23.400;2023-06-26T08:10:50;14.35;;;7.45;;
22650;SDS011;11492;42.646;23.400;2023-06-26T08:13:15;8.00;;;5.93;;
22650;SDS011;11492;42.646;23.400;2023-06-26T08:15:40;8.20;;;5.68;;
22650;SDS011;11492;42.646;23.400;2023-06-26T08:18:06;8.25;;;5.35;;
22650;SDS011;11492;42.646;23.400;2023-06-26T08:20:31;9.77;;;6.18;;
22650;SDS011;11492;42.646;23.400;2023-06-26T08:22:57;7.82;;;5.35;;
22650;SDS011;11492;42.646;23.400;2023-06-26T08:25:22;8.52;;;6.13;;
22650;SDS011;11492;42.646;23.400;2023-06-26T08:27:47;11.52;;;6.20;;
22650;SDS011;11492;42.646;23.400;2023-06-26T08:30:13;14.02;;;6.30;;
22650;SDS011;11492;42.646;23.400;2023-06-26T08:32:39;9.00;;;6.03;;
22650;SDS011;11492;42.646;23.400;2023-06-26T08:35:05;12.23;;;7.57;;
22650;SDS011;11492;42.646;23.400;2023-06-26T08:37:32;9.40;;;5.50;;
22650;SDS011;11492;42.646;23.400;2023-06-26T08:39:58;8.57;;;5.30;;
22650;SDS011;11492;42.646;23.400;2023-06-26T08:42:25;6.80;;;5.43;;
22650;SDS011;11492;42.646;23.400;2023-06-26T08:44:50;7.03;;;4.70;;
22650;SDS011;11492;42.646;23.400;2023-06-26T08:47:15;7.30;;;4.97;;
22650;SDS011;11492;42.646;23.400;2023-06-26T08:52:17;8.15;;;5.15;;
22650;SDS011;11492;42.646;23.400;2023-06-26T08:54:49;11.50;;;4.60;;
22650;SDS011;11492;42.646;23.400;2023-06-26T08:57:20;11.60;;;5.93;;
22650;SDS011;11492;42.646;23.400;2023-06-26T08:59:48;12.20;;;6.65;;
22650;SDS011;11492;42.646;23.400;2023-06-26T09:02:14;8.57;;;6.07;;
22650;SDS011;11492;42.646;23.400;2023-06-26T09:04:40;13.23;;;6.00;;
22650;SDS011;11492;42.646;23.400;2023-06-26T09:07:05;7.57;;;4.90;;
22650;SDS011;11492;42.646;23.400;2023-06-26T09:09:31;7.93;;;5.18;;
22650;SDS011;11492;42.646;23.400;2023-06-26T09:11:57;6.90;;;4.97;;
22650;SDS011;11492;42.646;23.400;2023-06-26T09:14:23;8.73;;;5.22;;
22650;SDS011;11492;42.646;23.400;2023-06-26T09:16:49;8.90;;;5.45;;
22650;SDS011;11492;42.646;23.400;2023-06-26T09:19:15;8.55;;;5.10;;
22650;SDS011;11492;42.646;23.400;2023-06-26T09:21:41;7.43;;;5.03;;
22650;SDS011;11492;42.646;23.400;2023-06-26T09:24:08;10.63;;;4.68;;
22650;SDS011;11492;42.646;23.400;2023-06-26T09:26:37;7.13;;;4.72;;
22650;SDS011;11492;42.646;23.400;2023-06-26T09:29:05;7.45;;;4.82;;
22650;SDS011;11492;42.646;23.400;2023-06-26T09:31:31;7.95;;;4.57;;
22650;SDS011;11492;42.646;23.400;2023-06-26T09:33:58;7.40;;;4.80;;
22650;SDS011;11492;42.646;23.400;2023-06-26T09:36:26;14.95;;;5.03;;
22650;SDS011;11492;42.646;23.400;2023-06-26T09:39:01;8.70;;;4.82;;
22650;SDS011;11492;42.646;23.400;2023-06-26T09:41:32;8.70;;;4.70;;
22650;SDS011;11492;42.646;23.400;2023-06-26T09:44:00;8.52;;;5.10;;
22650;SDS011;11492;42.646;23.400;2023-06-26T09:46:28;8.52;;;4.75;;
22650;SDS011;11492;42.646;23.400;2023-06-26T09:49:01;5.75;;;4.57;;
22650;SDS011;11492;42.646;23.400;2023-06-26T09:51:32;7.47;;;4.50;;
22650;SDS011;11492;42.646;23.400;2023-06-26T09:54:01;9.75;;;4.60;;
22650;SDS011;11492;42.646;23.400;2023-06-26T09:56:27;8.95;;;5.05;;
22650;SDS011;11492;42.646;23.400;2023-06-26T09:58:57;10.23;;;5.03;;
22650;SDS011;11492;42.646;23.400;2023-06-26T10:01:25;12.15;;;4.82;;
22650;SDS011;11492;42.646;23.400;2023-06-26T10:03:50;8.30;;;5.25;;
22650;SDS011;11492;42.646;23.400;2023-06-26T10:06:21;12.40;;;5.50;;
22650;SDS011;11492;42.646;23.400;2023-06-26T10:08:51;7.93;;;5.22;;
22650;SDS011;11492;42.646;23.400;2023-06-26T10:11:19;7.07;;;5.30;;
22650;SDS011;11492;42.646;23.400;2023-06-26T10:13:47;10.88;;;5.53;;
22650;SDS011;11492;42.646;23.400;2023-06-26T10:16:21;6.75;;;5.10;;
22650;SDS011;11492;42.646;23.400;2023-06-26T10:18:50;9.98;;;5.50;;
22650;SDS011;11492;42.646;23.400;2023-06-26T10:21:20;7.28;;;5.20;;
22650;SDS011;11492;42.646;23.400;2023-06-26T10:23:47;13.63;;;5.90;;
22650;SDS011;11492;42.646;23.400;2023-06-26T10:26:14;12.68;;;5.68;;
22650;SDS011;11492;42.646;23.400;2023-06-26T10:28:41;9.20;;;5.43;;
22650;SDS011;11492;42.646;23.400;2023-06-26T10:31:10;17.20;;;5.13;;
22650;SDS011;11492;42.646;23.400;2023-06-26T10:33:36;10.30;;;5.38;;
22650;SDS011;11492;42.646;23.400;2023-06-26T10:36:15;13.88;;;6.43;;
22650;SDS011;11492;42.646;23.400;2023-06-26T10:38:48;20.98;;;8.07;;
22650;SDS011;11492;42.646;23.400;2023-06-26T10:41:15;19.65;;;7.10;;
22650;SDS011;11492;42.646;23.400;2023-06-26T10:43:44;11.32;;;6.63;;
22650;SDS011;11492;42.646;23.400;2023-06-26T10:46:11;12.60;;;7.00;;
22650;SDS011;11492;42.646;23.400;2023-06-26T10:48:56;10.98;;;7.65;;
22650;SDS011;11492;42.646;23.400;2023-06-26T10:51:27;17.48;;;7.60;;
22650;SDS011;11492;42.646;23.400;2023-06-26T10:53:57;14.30;;;7.80;;
22650;SDS011;11492;42.646;23.400;2023-06-26T10:59:13;13.10;;;7.43;;
22650;SDS011;11492;42.646;23.400;2023-06-26T11:01:41;15.75;;;7.45;;
22650;SDS011;11492;42.646;23.400;2023-06-26T11:04:07;12.10;;;8.25;;
22650;SDS011;11492;42.646;23.400;2023-06-26T11:06:34;14.20;;;7.20;;
22650;SDS011;11492;42.646;23.400;2023-06-26T11:14:19;14.82;;;7.10;;
22650;SDS011;11492;42.646;23.400;2023-06-26T11:16:46;11.95;;;7.28;;
22650;SDS011;11492;42.646;23.400;2023-06-26T11:19:12;11.63;;;6.72;;
22650;SDS011;11492;42.646;23.400;2023-06-26T11:21:39;13.63;;;6.47;;
22650;SDS011;11492;42.646;23.400;2023-06-26T11:24:08;14.63;;;6.20;;
22650;SDS011;11492;42.646;23.400;2023-06-26T11:26:38;12.25;;;6.30;;
22650;SDS011;11492;42.646;23.400;2023-06-26T11:29:04;9.38;;;5.60;;
22650;SDS011;11492;42.646;23.400;2023-06-26T11:31:30;9.23;;;5.50;;
22650;SDS011;11492;42.646;23.400;2023-06-26T11:33:58;7.20;;;5.38;;
22650;SDS011;11492;42.646;23.400;2023-06-26T11:36:28;9.75;;;5.50;;
22650;SDS011;11492;42.646;23.400;2023-06-26T11:38:55;7.60;;;5.70;;
22650;SDS011;11492;42.646;23.400;2023-06-26T11:41:33;7.35;;;5.53;;
22650;SDS011;11492;42.646;23.400;2023-06-26T11:46:30;8.23;;;6.00;;
22650;SDS011;11492;42.646;23.400;2023-06-26T11:48:56;8.93;;;5.32;;
22650;SDS011;11492;42.646;23.400;2023-06-26T11:51:21;7.43;;;5.55;;
22650;SDS011;11492;42.646;23.400;2023-06-26T11:53:47;14.85;;;5.22;;
22650;SDS011;11492;42.646;23.400;2023-06-26T11:56:13;11.68;;;5.18;;
22650;SDS011;11492;42.646;23.400;2023-06-26T11:58:59;7.50;;;5.20;;
22650;SDS011;11492;42.646;23.400;2023-06-26T12:01:35;9.55;;;4.60;;
22650;SDS011;11492;42.646;23.400;2023-06-26T12:06:40;8.13;;;4.50;;
22650;SDS011;11492;42.646;23.400;2023-06-26T12:09:11;9.55;;;4.55;;
22650;SDS011;11492;42.646;23.400;2023-06-26T12:11:39;7.22;;;4.97;;
22650;SDS011;11492;42.646;23.400;2023-06-26T12:14:08;5.55;;;4.90;;
22650;SDS011;11492;42.646;23.400;2023-06-26T12:16:35;7.50;;;4.80;;
22650;SDS011;11492;42.646;23.400;2023-06-26T12:19:02;6.75;;;4.97;;
22650;SDS011;11492;42.646;23.400;2023-06-26T12:24:07;6.40;;;4.85;;
22650;SDS011;11492;42.646;23.400;2023-06-26T12:26:34;7.93;;;4.90;;
22650;SDS011;11492;42.646;23.400;2023-06-26T12:29:06;8.60;;;4.47;;
22650;SDS011;11492;42.646;23.400;2023-06-26T12:31:33;9.75;;;4.57;;
22650;SDS011;11492;42.646;23.400;2023-06-26T12:33:59;7.40;;;5.03;;
22650;SDS011;11492;42.646;23.400;2023-06-26T12:36:25;6.75;;;4.80;;
22650;SDS011;11492;42.646;23.400;2023-06-26T12:38:52;10.30;;;5.00;;
22650;SDS011;11492;42.646;23.400;2023-06-26T12:41:18;7.28;;;5.03;;
22650;SDS011;11492;42.646;23.400;2023-06-26T12:43:45;8.35;;;5.07;;
22650;SDS011;11492;42.646;23.400;2023-06-26T12:46:11;7.10;;;4.68;;
22650;SDS011;11492;42.646;23.400;2023-06-26T12:48:39;9.60;;;5.40;;
22650;SDS011;11492;42.646;23.400;2023-06-26T12:51:16;9.05;;;5.32;;
22650;SDS011;11492;42.646;23.400;2023-06-26T12:53:43;6.85;;;4.38;;
22650;SDS011;11492;42.646;23.400;2023-06-26T12:56:09;8.13;;;5.32;;
22650;SDS011;11492;42.646;23.400;2023-06-26T12:58:36;6.07;;;4.75;;
22650;SDS011;11492;42.646;23.400;2023-06-26T13:01:06;7.57;;;4.65;;
22650;SDS011;11492;42.646;23.400;2023-06-26T13:03:42;11.93;;;4.82;;
22650;SDS011;11492;42.646;23.400;2023-06-26T13:06:07;8.50;;;5.00;;
22650;SDS011;11492;42.646;23.400;2023-06-26T13:08:33;8.20;;;5.13;;
22650;SDS011;11492;42.646;23.400;2023-06-26T13:10:59;8.98;;;5.25;;
22650;SDS011;11492;42.646;23.400;2023-06-26T13:13:25;16.02;;;5.88;;
22650;SDS011;11492;42.646;23.400;2023-06-26T13:15:50;12.93;;;5.60;;
22650;SDS011;11492;42.646;23.400;2023-06-26T13:18:16;20.17;;;11.55;;
22650;SDS011;11492;42.646;23.400;2023-06-26T13:20:42;19.02;;;13.85;;
22650;SDS011;11492;42.646;23.400;2023-06-26T13:23:07;9.65;;;6.03;;
22650;SDS011;11492;42.646;23.400;2023-06-26T13:25:33;12.63;;;5.78;;
22650;SDS011;11492;42.646;23.400;2023-06-26T13:27:58;11.27;;;5.47;;
22650;SDS011;11492;42.646;23.400;2023-06-26T13:30:24;10.32;;;5.63;;
22650;SDS011;11492;42.646;23.400;2023-06-26T13:32:49;9.02;;;5.65;;
22650;SDS011;11492;42.646;23.400;2023-06-26T13:35:15;9.27;;;5.55;;
22650;SDS011;11492;42.646;23.400;2023-06-26T13:37:41;8.02;;;5.32;;
22650;SDS011;11492;42.646;23.400;2023-06-26T13:40:07;7.40;;;5.22;;
22650;SDS011;11492;42.646;23.400;2023-06-26T13:42:34;10.15;;;4.78;;
22650;SDS011;11492;42.646;23.400;2023-06-26T13:45:01;9.77;;;5.22;;
22650;SDS011;11492;42.646;23.400;2023-06-26T13:47:26;11.70;;;5.78;;
22650;SDS011;11492;42.646;23.400;2023-06-26T13:49:52;13.60;;;7.47;;
22650;SDS011;11492;42.646;23.400;2023-06-26T13:52:17;9.63;;;5.30;;
22650;SDS011;11492;42.646;23.400;2023-06-26T13:54:43;16.35;;;5.55;;
22650;SDS011;11492;42.646;23.400;2023-06-26T13:57:08;14.90;;;5.78;;
22650;SDS011;11492;42.646;23.400;2023-06-26T13:59:34;11.93;;;5.45;;
22650;SDS011;11492;42.646;23.400;2023-06-26T14:02:01;6.90;;;5.72;;
22650;SDS011;11492;42.646;23.400;2023-06-26T14:04:27;11.50;;;5.50;;
22650;SDS011;11492;42.646;23.400;2023-06-26T14:06:52;8.63;;;5.20;;
22650;SDS011;11492;42.646;23.400;2023-06-26T14:09:18;10.13;;;5.45;;
22650;SDS011;11492;42.646;23.400;2023-06-26T14:11:44;12.73;;;5.80;;
22650;SDS011;11492;42.646;23.400;2023-06-26T14:14:09;11.07;;;5.50;;
22650;SDS011;11492;42.646;23.400;2023-06-26T14:16:35;7.07;;;5.15;;
22650;SDS011;11492;42.646;23.400;2023-06-26T14:19:00;8.23;;;5.50;;
22650;SDS011;11492;42.646;23.400;2023-06-26T14:21:27;7.95;;;5.60;;
22650;SDS011;11492;42.646;23.400;2023-06-26T14:23:53;17.83;;;5.70;;
22650;SDS011;11492;42.646;23.400;2023-06-26T14:26:19;8.88;;;5.72;;
22650;SDS011;11492;42.646;23.400;2023-06-26T14:28:45;12.15;;;7.15;;
22650;SDS011;11492;42.646;23.400;2023-06-26T14:31:10;10.25;;;6.25;;
22650;SDS011;11492;42.646;23.400;2023-06-26T14:33:36;9.38;;;5.90;;
22650;SDS011;11492;42.646;23.400;2023-06-26T14:36:01;13.65;;;7.78;;
22650;SDS011;11492;42.646;23.400;2023-06-26T14:38:27;11.02;;;6.00;;
22650;SDS011;11492;42.646;23.400;2023-06-26T14:40:52;9.80;;;5.78;;
22650;SDS011;11492;42.646;23.400;2023-06-26T14:43:17;11.25;;;6.10;;